sensor_id;sensor_type;location;lat;lon;timestamp;P1;durP1;ratioP1;P2;durP2;ratioP2
22965;SDS011;11649;48.090;9.754;2023-03-08T00:01:19;12.07;;;7.05;;
22965;SDS011;11649;48.090;9.754;2023-03-08T00:03:54;11.73;;;6.85;;
22965;SDS011;11649;48.090;9.754;2023-03-08T00:08:52;11.90;;;7.05;;
22965;SDS011;11649;48.090;9.754;2023-03-08T00:11:20;8.93;;;6.00;;
22965;SDS011;11649;48.090;9.754;2023-03-08T00:13:47;11.73;;;6.82;;
22965;SDS011;11649;48.090;9.754;2023-03-08T00:16:13;10.90;;;6.68;;
22965;SDS011;11649;48.090;9.754;2023-03-08T00:18:40;10.52;;;6.38;;
22965;SDS011;11649;48.090;9.754;2023-03-08T00:21:08;11.65;;;7.03;;
22965;SDS011;11649;48.090;9.754;2023-03-08T00:23:37;11.35;;;6.65;;
22965;SDS011;11649;48.090;9.754;2023-03-08T00:26:04;11.95;;;7.03;;
22965;SDS011;11649;48.090;9.754;2023-03-08T00:28:31;10.27;;;6.50;;
22965;SDS011;11649;48.090;9.754;2023-03-08T00:30:58;12.38;;;7.03;;
22965;SDS011;11649;48.090;9.754;2023-03-08T00:33:36;12.23;;;6.97;;
22965;SDS011;11649;48.090;9.754;2023-03-08T00:36:04;12.18;;;6.78;;
22965;SDS011;11649;48.090;9.754;2023-03-08T00:38:34;11.60;;;6.65;;
22965;SDS011;11649;48.090;9.754;2023-03-08T00:41:01;12.02;;;6.65;;
22965;SDS011;11649;48.090;9.754;2023-03-08T00:43:29;11.43;;;6.70;;
22965;SDS011;11649;48.090;9.754;2023-03-08T00:45:56;9.90;;;6.40;;
22965;SDS011;11649;48.090;9.754;2023-03-08T00:48:23;10.95;;;6.95;;
22965;SDS011;11649;48.090;9.754;2023-03-08T00:50:50;11.70;;;6.80;;
22965;SDS011;11649;48.090;9.754;2023-03-08T00:53:17;12.25;;;6.38;;
22965;SDS011;11649;48.090;9.754;2023-03-08T00:55:51;12.70;;;7.05;;
22965;SDS011;11649;48.090;9.754;2023-03-08T00:58:19;11.15;;;6.90;;
22965;SDS011;11649;48.090;9.754;2023-03-08T01:00:46;10.80;;;6.88;;
22965;SDS011;11649;48.090;9.754;2023-03-08T01:03:14;13.05;;;7.22;;
22965;SDS011;11649;48.090;9.754;2023-03-08T01:05:43;11.90;;;6.97;;
22965;SDS011;11649;48.090;9.754;2023-03-08T01:08:11;14.07;;;7.47;;
22965;SDS011;11649;48.090;9.754;2023-03-08T01:10:39;13.70;;;7.25;;
22965;SDS011;11649;48.090;9.754;2023-03-08T01:13:06;12.60;;;7.85;;
22965;SDS011;11649;48.090;9.754;2023-03-08T01:15:34;13.50;;;7.82;;
22965;SDS011;11649;48.090;9.754;2023-03-08T01:18:03;14.48;;;8.10;;
22965;SDS011;11649;48.090;9.754;2023-03-08T01:20:30;10.80;;;7.22;;
22965;SDS011;11649;48.090;9.754;2023-03-08T01:22:58;12.82;;;7.82;;
22965;SDS011;11649;48.090;9.754;2023-03-08T01:25:24;14.82;;;8.75;;
22965;SDS011;11649;48.090;9.754;2023-03-08T01:27:51;12.50;;;8.15;;
22965;SDS011;11649;48.090;9.754;2023-03-08T01:30:18;14.65;;;8.15;;
22965;SDS011;11649;48.090;9.754;2023-03-08T01:32:45;12.43;;;7.72;;
22965;SDS011;11649;48.090;9.754;2023-03-08T01:35:18;14.02;;;8.05;;
22965;SDS011;11649;48.090;9.754;2023-03-08T01:37:45;13.05;;;8.15;;
22965;SDS011;11649;48.090;9.754;2023-03-08T01:40:18;14.32;;;8.10;;
22965;SDS011;11649;48.090;9.754;2023-03-08T01:42:46;12.45;;;7.93;;
22965;SDS011;11649;48.090;9.754;2023-03-08T01:48:17;13.10;;;7.97;;
22965;SDS011;11649;48.090;9.754;2023-03-08T01:50:46;13.02;;;7.93;;
22965;SDS011;11649;48.090;9.754;2023-03-08T01:53:12;16.17;;;8.13;;
22965;SDS011;11649;48.090;9.754;2023-03-08T01:55:40;15.15;;;8.45;;
22965;SDS011;11649;48.090;9.754;2023-03-08T01:58:07;16.85;;;9.15;;
22965;SDS011;11649;48.090;9.754;2023-03-08T02:00:34;15.82;;;9.23;;
22965;SDS011;11649;48.090;9.754;2023-03-08T02:03:05;16.65;;;9.18;;
22965;SDS011;11649;48.090;9.754;2023-03-08T02:05:35;14.00;;;8.43;;
22965;SDS011;11649;48.090;9.754;2023-03-08T02:08:04;15.77;;;8.88;;
22965;SDS011;11649;48.090;9.754;2023-03-08T02:10:30;14.88;;;9.10;;
22965;SDS011;11649;48.090;9.754;2023-03-08T02:12:57;18.70;;;9.45;;
22965;SDS011;11649;48.090;9.754;2023-03-08T02:15:24;15.10;;;8.77;;
22965;SDS011;11649;48.090;9.754;2023-03-08T02:17:51;15.68;;;9.45;;
22965;SDS011;11649;48.090;9.754;2023-03-08T02:20:23;16.55;;;9.98;;
22965;SDS011;11649;48.090;9.754;2023-03-08T02:23:05;16.52;;;9.57;;
22965;SDS011;11649;48.090;9.754;2023-03-08T02:25:36;18.63;;;9.60;;
22965;SDS011;11649;48.090;9.754;2023-03-08T02:28:04;19.90;;;8.95;;
22965;SDS011;11649;48.090;9.754;2023-03-08T02:30:32;19.42;;;9.30;;
22965;SDS011;11649;48.090;9.754;2023-03-08T02:33:01;16.55;;;10.05;;
22965;SDS011;11649;48.090;9.754;2023-03-08T02:35:28;16.63;;;9.93;;
22965;SDS011;11649;48.090;9.754;2023-03-08T02:37:56;16.77;;;9.90;;
22965;SDS011;11649;48.090;9.754;2023-03-08T02:40:22;18.95;;;10.75;;
22965;SDS011;11649;48.090;9.754;2023-03-08T02:42:50;18.00;;;10.25;;
22965;SDS011;11649;48.090;9.754;2023-03-08T02:45:18;17.73;;;10.65;;
22965;SDS011;11649;48.090;9.754;2023-03-08T02:47:45;18.85;;;9.73;;
22965;SDS011;11649;48.090;9.754;2023-03-08T02:50:12;20.48;;;11.27;;
22965;SDS011;11649;48.090;9.754;2023-03-08T02:52:38;18.85;;;10.88;;
22965;SDS011;11649;48.090;9.754;2023-03-08T02:55:05;19.02;;;10.55;;
22965;SDS011;11649;48.090;9.754;2023-03-08T02:57:33;18.98;;;11.10;;
22965;SDS011;11649;48.090;9.754;2023-03-08T02:59:59;19.17;;;11.25;;
22965;SDS011;11649;48.090;9.754;2023-03-08T03:02:26;18.58;;;10.30;;
22965;SDS011;11649;48.090;9.754;2023-03-08T03:04:53;19.38;;;11.38;;
22965;SDS011;11649;48.090;9.754;2023-03-08T03:07:20;18.67;;;10.68;;
22965;SDS011;11649;48.090;9.754;2023-03-08T03:09:47;16.95;;;10.50;;
22965;SDS011;11649;48.090;9.754;2023-03-08T03:12:14;20.88;;;10.90;;
22965;SDS011;11649;48.090;9.754;2023-03-08T03:14:40;20.33;;;10.85;;
22965;SDS011;11649;48.090;9.754;2023-03-08T03:17:07;22.15;;;11.18;;
22965;SDS011;11649;48.090;9.754;2023-03-08T03:19:34;19.55;;;11.07;;
22965;SDS011;11649;48.090;9.754;2023-03-08T03:22:02;18.83;;;10.85;;
22965;SDS011;11649;48.090;9.754;2023-03-08T03:24:29;19.35;;;11.70;;
22965;SDS011;11649;48.090;9.754;2023-03-08T03:26:56;20.25;;;11.77;;
22965;SDS011;11649;48.090;9.754;2023-03-08T03:29:23;20.95;;;11.60;;
22965;SDS011;11649;48.090;9.754;2023-03-08T03:31:50;21.33;;;11.98;;
22965;SDS011;11649;48.090;9.754;2023-03-08T03:34:16;21.33;;;12.60;;
22965;SDS011;11649;48.090;9.754;2023-03-08T03:36:43;19.60;;;11.48;;
22965;SDS011;11649;48.090;9.754;2023-03-08T03:39:10;18.27;;;11.20;;
22965;SDS011;11649;48.090;9.754;2023-03-08T03:41:37;21.13;;;11.75;;
22965;SDS011;11649;48.090;9.754;2023-03-08T03:44:03;19.55;;;11.02;;
22965;SDS011;11649;48.090;9.754;2023-03-08T03:46:30;20.75;;;11.48;;
22965;SDS011;11649;48.090;9.754;2023-03-08T03:48:57;20.33;;;12.20;;
22965;SDS011;11649;48.090;9.754;2023-03-08T03:51:24;19.70;;;12.10;;
22965;SDS011;11649;48.090;9.754;2023-03-08T03:53:50;22.80;;;12.70;;
22965;SDS011;11649;48.090;9.754;2023-03-08T03:56:21;22.45;;;11.77;;
22965;SDS011;11649;48.090;9.754;2023-03-08T03:58:49;20.02;;;12.07;;
22965;SDS011;11649;48.090;9.754;2023-03-08T04:01:20;21.88;;;12.45;;
22965;SDS011;11649;48.090;9.754;2023-03-08T04:03:52;20.77;;;11.82;;
22965;SDS011;11649;48.090;9.754;2023-03-08T04:06:23;23.10;;;11.77;;
22965;SDS011;11649;48.090;9.754;2023-03-08T04:08:56;20.00;;;11.95;;
22965;SDS011;11649;48.090;9.754;2023-03-08T04:11:32;19.63;;;11.90;;
22965;SDS011;11649;48.090;9.754;2023-03-08T04:14:01;19.42;;;11.93;;
22965;SDS011;11649;48.090;9.754;2023-03-08T04:16:28;21.00;;;12.52;;
22965;SDS011;11649;48.090;9.754;2023-03-08T04:18:59;20.70;;;11.68;;
22965;SDS011;11649;48.090;9.754;2023-03-08T04:21:28;20.10;;;12.00;;
22965;SDS011;11649;48.090;9.754;2023-03-08T04:23:56;17.33;;;12.10;;
22965;SDS011;11649;48.090;9.754;2023-03-08T04:26:25;22.50;;;12.63;;
22965;SDS011;11649;48.090;9.754;2023-03-08T04:28:52;22.55;;;13.25;;
22965;SDS011;11649;48.090;9.754;2023-03-08T04:31:23;22.15;;;12.48;;
22965;SDS011;11649;48.090;9.754;2023-03-08T04:33:53;24.92;;;13.23;;
22965;SDS011;11649;48.090;9.754;2023-03-08T04:36:20;24.55;;;13.60;;
22965;SDS011;11649;48.090;9.754;2023-03-08T04:38:48;25.00;;;14.00;;
22965;SDS011;11649;48.090;9.754;2023-03-08T04:41:15;20.15;;;12.15;;
22965;SDS011;11649;48.090;9.754;2023-03-08T04:43:43;23.50;;;12.68;;
22965;SDS011;11649;48.090;9.754;2023-03-08T04:46:19;22.70;;;12.75;;
22965;SDS011;11649;48.090;9.754;2023-03-08T04:48:48;29.25;;;13.77;;
22965;SDS011;11649;48.090;9.754;2023-03-08T04:51:18;23.15;;;12.90;;
22965;SDS011;11649;48.090;9.754;2023-03-08T04:53:45;24.73;;;14.07;;
22965;SDS011;11649;48.090;9.754;2023-03-08T04:56:12;24.48;;;14.20;;
22965;SDS011;11649;48.090;9.754;2023-03-08T04:58:40;21.85;;;13.95;;
22965;SDS011;11649;48.090;9.754;2023-03-08T05:01:08;25.33;;;13.85;;
22965;SDS011;11649;48.090;9.754;2023-03-08T05:03:39;21.58;;;13.20;;
22965;SDS011;11649;48.090;9.754;2023-03-08T05:06:06;22.33;;;13.23;;
22965;SDS011;11649;48.090;9.754;2023-03-08T05:08:33;20.67;;;13.30;;
22965;SDS011;11649;48.090;9.754;2023-03-08T05:11:00;25.90;;;14.55;;
22965;SDS011;11649;48.090;9.754;2023-03-08T05:13:30;28.42;;;17.13;;
22965;SDS011;11649;48.090;9.754;2023-03-08T05:16:00;24.67;;;14.00;;
22965;SDS011;11649;48.090;9.754;2023-03-08T05:18:27;25.58;;;15.48;;
22965;SDS011;11649;48.090;9.754;2023-03-08T05:20:58;26.75;;;14.55;;
22965;SDS011;11649;48.090;9.754;2023-03-08T05:23:28;23.88;;;13.88;;
22965;SDS011;11649;48.090;9.754;2023-03-08T05:25:56;27.45;;;16.95;;
22965;SDS011;11649;48.090;9.754;2023-03-08T05:28:26;26.58;;;15.43;;
22965;SDS011;11649;48.090;9.754;2023-03-08T05:31:01;26.70;;;16.30;;
22965;SDS011;11649;48.090;9.754;2023-03-08T05:33:36;26.15;;;15.75;;
22965;SDS011;11649;48.090;9.754;2023-03-08T05:36:04;23.98;;;14.60;;
22965;SDS011;11649;48.090;9.754;2023-03-08T05:38:32;25.25;;;14.68;;
22965;SDS011;11649;48.090;9.754;2023-03-08T05:41:03;25.15;;;14.45;;
22965;SDS011;11649;48.090;9.754;2023-03-08T05:43:32;25.13;;;14.15;;
22965;SDS011;11649;48.090;9.754;2023-03-08T05:46:00;24.20;;;14.30;;
22965;SDS011;11649;48.090;9.754;2023-03-08T05:48:32;20.25;;;13.68;;
22965;SDS011;11649;48.090;9.754;2023-03-08T05:51:04;31.00;;;17.02;;
22965;SDS011;11649;48.090;9.754;2023-03-08T05:53:32;25.80;;;15.20;;
22965;SDS011;11649;48.090;9.754;2023-03-08T05:56:06;24.17;;;15.25;;
22965;SDS011;11649;48.090;9.754;2023-03-08T05:58:36;26.58;;;14.82;;
22965;SDS011;11649;48.090;9.754;2023-03-08T06:01:10;23.58;;;14.23;;
22965;SDS011;11649;48.090;9.754;2023-03-08T06:03:38;22.02;;;14.48;;
22965;SDS011;11649;48.090;9.754;2023-03-08T06:06:05;24.00;;;14.70;;
22965;SDS011;11649;48.090;9.754;2023-03-08T06:08:32;24.65;;;14.52;;
22965;SDS011;11649;48.090;9.754;2023-03-08T06:10:59;26.45;;;14.40;;
22965;SDS011;11649;48.090;9.754;2023-03-08T06:13:26;25.40;;;15.93;;
22965;SDS011;11649;48.090;9.754;2023-03-08T06:15:56;27.98;;;16.85;;
22965;SDS011;11649;48.090;9.754;2023-03-08T06:18:24;23.70;;;14.35;;
22965;SDS011;11649;48.090;9.754;2023-03-08T06:20:59;22.60;;;13.48;;
22965;SDS011;11649;48.090;9.754;2023-03-08T06:23:33;23.80;;;14.65;;
22965;SDS011;11649;48.090;9.754;2023-03-08T06:26:02;27.95;;;15.18;;
22965;SDS011;11649;48.090;9.754;2023-03-08T06:28:31;24.48;;;14.77;;
22965;SDS011;11649;48.090;9.754;2023-03-08T06:30:58;22.55;;;14.32;;
22965;SDS011;11649;48.090;9.754;2023-03-08T06:33:26;22.33;;;13.80;;
22965;SDS011;11649;48.090;9.754;2023-03-08T06:35:55;22.02;;;12.98;;
22965;SDS011;11649;48.090;9.754;2023-03-08T06:38:25;20.55;;;13.80;;
22965;SDS011;11649;48.090;9.754;2023-03-08T06:40:55;24.08;;;14.23;;
22965;SDS011;11649;48.090;9.754;2023-03-08T06:43:22;24.85;;;14.30;;
22965;SDS011;11649;48.090;9.754;2023-03-08T06:45:49;21.98;;;13.75;;
22965;SDS011;11649;48.090;9.754;2023-03-08T06:48:16;21.27;;;13.50;;
22965;SDS011;11649;48.090;9.754;2023-03-08T06:50:43;25.98;;;15.27;;
22965;SDS011;11649;48.090;9.754;2023-03-08T06:53:10;22.75;;;14.02;;
22965;SDS011;11649;48.090;9.754;2023-03-08T06:55:38;21.90;;;12.68;;
22965;SDS011;11649;48.090;9.754;2023-03-08T06:58:06;20.25;;;13.00;;
22965;SDS011;11649;48.090;9.754;2023-03-08T07:00:33;20.88;;;13.38;;
22965;SDS011;11649;48.090;9.754;2023-03-08T07:03:00;20.23;;;12.45;;
22965;SDS011;11649;48.090;9.754;2023-03-08T07:05:27;22.00;;;13.20;;
22965;SDS011;11649;48.090;9.754;2023-03-08T07:07:54;20.40;;;13.07;;
22965;SDS011;11649;48.090;9.754;2023-03-08T07:10:21;21.98;;;12.77;;
22965;SDS011;11649;48.090;9.754;2023-03-08T07:12:48;21.02;;;12.95;;
22965;SDS011;11649;48.090;9.754;2023-03-08T07:15:17;20.83;;;13.18;;
22965;SDS011;11649;48.090;9.754;2023-03-08T07:17:45;20.17;;;14.00;;
22965;SDS011;11649;48.090;9.754;2023-03-08T07:20:14;21.77;;;12.30;;
22965;SDS011;11649;48.090;9.754;2023-03-08T07:22:42;21.25;;;13.10;;
22965;SDS011;11649;48.090;9.754;2023-03-08T07:25:10;20.77;;;12.38;;
22965;SDS011;11649;48.090;9.754;2023-03-08T07:27:38;20.40;;;12.30;;
22965;SDS011;11649;48.090;9.754;2023-03-08T07:30:05;22.83;;;13.02;;
22965;SDS011;11649;48.090;9.754;2023-03-08T07:32:36;20.15;;;12.18;;
22965;SDS011;11649;48.090;9.754;2023-03-08T07:35:06;20.80;;;12.95;;
22965;SDS011;11649;48.090;9.754;2023-03-08T07:37:33;19.40;;;12.30;;
22965;SDS011;11649;48.090;9.754;2023-03-08T07:40:00;19.30;;;11.60;;
22965;SDS011;11649;48.090;9.754;2023-03-08T07:42:27;18.02;;;12.18;;
22965;SDS011;11649;48.090;9.754;2023-03-08T07:44:54;20.05;;;12.07;;
22965;SDS011;11649;48.090;9.754;2023-03-08T07:47:20;18.05;;;11.55;;
22965;SDS011;11649;48.090;9.754;2023-03-08T07:49:47;19.90;;;12.13;;
22965;SDS011;11649;48.090;9.754;2023-03-08T07:52:14;17.90;;;11.10;;
22965;SDS011;11649;48.090;9.754;2023-03-08T07:54:41;17.17;;;11.48;;
22965;SDS011;11649;48.090;9.754;2023-03-08T07:57:12;19.25;;;11.85;;
22965;SDS011;11649;48.090;9.754;2023-03-08T07:59:40;17.58;;;10.57;;
22965;SDS011;11649;48.090;9.754;2023-03-08T08:02:09;21.10;;;10.15;;
22965;SDS011;11649;48.090;9.754;2023-03-08T08:04:38;17.27;;;10.88;;
22965;SDS011;11649;48.090;9.754;2023-03-08T08:07:06;19.33;;;12.07;;
22965;SDS011;11649;48.090;9.754;2023-03-08T08:09:36;16.92;;;11.10;;
22965;SDS011;11649;48.090;9.754;2023-03-08T08:12:04;16.60;;;10.90;;
22965;SDS011;11649;48.090;9.754;2023-03-08T08:14:31;17.60;;;11.07;;
22965;SDS011;11649;48.090;9.754;2023-03-08T08:16:58;14.90;;;10.52;;
22965;SDS011;11649;48.090;9.754;2023-03-08T08:19:25;15.45;;;10.70;;
22965;SDS011;11649;48.090;9.754;2023-03-08T08:21:52;17.80;;;10.30;;
22965;SDS011;11649;48.090;9.754;2023-03-08T08:24:19;16.55;;;10.63;;
22965;SDS011;11649;48.090;9.754;2023-03-08T08:26:46;18.70;;;10.25;;
22965;SDS011;11649;48.090;9.754;2023-03-08T08:29:13;17.95;;;10.38;;
22965;SDS011;11649;48.090;9.754;2023-03-08T08:31:39;16.48;;;10.23;;
22965;SDS011;11649;48.090;9.754;2023-03-08T08:34:07;15.10;;;10.25;;
22965;SDS011;11649;48.090;9.754;2023-03-08T08:36:34;16.13;;;9.57;;
22965;SDS011;11649;48.090;9.754;2023-03-08T08:39:00;14.88;;;10.00;;
22965;SDS011;11649;48.090;9.754;2023-03-08T08:41:27;14.93;;;9.98;;
22965;SDS011;11649;48.090;9.754;2023-03-08T08:43:55;16.90;;;9.88;;
22965;SDS011;11649;48.090;9.754;2023-03-08T08:46:24;16.45;;;9.93;;
22965;SDS011;11649;48.090;9.754;2023-03-08T08:48:56;14.48;;;9.95;;
22965;SDS011;11649;48.090;9.754;2023-03-08T08:51:23;15.25;;;10.20;;
22965;SDS011;11649;48.090;9.754;2023-03-08T08:53:51;15.63;;;10.20;;
22965;SDS011;11649;48.090;9.754;2023-03-08T08:56:25;15.82;;;9.95;;
22965;SDS011;11649;48.090;9.754;2023-03-08T08:58:58;16.58;;;10.35;;
22965;SDS011;11649;48.090;9.754;2023-03-08T09:01:27;16.40;;;10.40;;
22965;SDS011;11649;48.090;9.754;2023-03-08T09:03:56;14.73;;;9.73;;
22965;SDS011;11649;48.090;9.754;2023-03-08T09:06:25;15.88;;;9.23;;
22965;SDS011;11649;48.090;9.754;2023-03-08T09:08:53;14.48;;;9.48;;
22965;SDS011;11649;48.090;9.754;2023-03-08T09:11:22;15.77;;;9.93;;
22965;SDS011;11649;48.090;9.754;2023-03-08T09:13:49;12.70;;;9.25;;
22965;SDS011;11649;48.090;9.754;2023-03-08T09:16:18;13.75;;;8.32;;
22965;SDS011;11649;48.090;9.754;2023-03-08T09:18:52;12.10;;;8.20;;
22965;SDS011;11649;48.090;9.754;2023-03-08T09:21:21;13.88;;;8.50;;
22965;SDS011;11649;48.090;9.754;2023-03-08T09:23:49;12.23;;;9.40;;
22965;SDS011;11649;48.090;9.754;2023-03-08T09:26:16;17.00;;;8.05;;
22965;SDS011;11649;48.090;9.754;2023-03-08T09:28:43;11.90;;;8.55;;
22965;SDS011;11649;48.090;9.754;2023-03-08T09:31:12;11.18;;;7.88;;
22965;SDS011;11649;48.090;9.754;2023-03-08T09:33:45;19.40;;;7.95;;
22965;SDS011;11649;48.090;9.754;2023-03-08T09:36:13;10.77;;;7.88;;
22965;SDS011;11649;48.090;9.754;2023-03-08T09:38:41;11.70;;;7.75;;
22965;SDS011;11649;48.090;9.754;2023-03-08T09:41:18;8.93;;;6.70;;
22965;SDS011;11649;48.090;9.754;2023-03-08T09:46:52;9.10;;;5.90;;
22965;SDS011;11649;48.090;9.754;2023-03-08T09:49:27;9.55;;;6.55;;
22965;SDS011;11649;48.090;9.754;2023-03-08T09:52:02;9.60;;;6.10;;
22965;SDS011;11649;48.090;9.754;2023-03-08T09:54:37;9.27;;;6.13;;
22965;SDS011;11649;48.090;9.754;2023-03-08T09:57:05;12.20;;;6.40;;
22965;SDS011;11649;48.090;9.754;2023-03-08T09:59:40;8.85;;;6.07;;
22965;SDS011;11649;48.090;9.754;2023-03-08T10:11:20;10.52;;;6.50;;
22965;SDS011;11649;48.090;9.754;2023-03-08T10:13:59;8.60;;;6.13;;
22965;SDS011;11649;48.090;9.754;2023-03-08T10:16:33;10.95;;;6.25;;
22965;SDS011;11649;48.090;9.754;2023-03-08T10:19:04;10.32;;;6.05;;
22965;SDS011;11649;48.090;9.754;2023-03-08T10:21:51;7.93;;;5.57;;
22965;SDS011;11649;48.090;9.754;2023-03-08T10:24:25;8.88;;;5.95;;
22965;SDS011;11649;48.090;9.754;2023-03-08T10:27:15;9.27;;;6.32;;
22965;SDS011;11649;48.090;9.754;2023-03-08T10:29:55;10.80;;;6.00;;
22965;SDS011;11649;48.090;9.754;2023-03-08T10:32:24;8.82;;;5.45;;
22965;SDS011;11649;48.090;9.754;2023-03-08T10:34:58;9.27;;;5.25;;
22965;SDS011;11649;48.090;9.754;2023-03-08T10:37:30;8.88;;;4.82;;
22965;SDS011;11649;48.090;9.754;2023-03-08T10:39:59;23.02;;;4.07;;
22965;SDS011;11649;48.090;9.754;2023-03-08T10:42:31;6.68;;;4.20;;
22965;SDS011;11649;48.090;9.754;2023-03-08T10:45:21;6.75;;;4.28;;
22965;SDS011;11649;48.090;9.754;2023-03-08T10:47:54;5.45;;;4.28;;
22965;SDS011;11649;48.090;9.754;2023-03-08T10:50:30;4.85;;;3.80;;
22965;SDS011;11649;48.090;9.754;2023-03-08T10:53:16;6.68;;;4.28;;
22965;SDS011;11649;48.090;9.754;2023-03-08T10:55:45;7.15;;;4.50;;
22965;SDS011;11649;48.090;9.754;2023-03-08T10:58:27;5.47;;;3.75;;
22965;SDS011;11649;48.090;9.754;2023-03-08T11:01:23;6.10;;;4.25;;
22965;SDS011;11649;48.090;9.754;2023-03-08T11:04:02;5.50;;;3.67;;
22965;SDS011;11649;48.090;9.754;2023-03-08T11:06:48;5.70;;;4.25;;
22965;SDS011;11649;48.090;9.754;2023-03-08T11:09:18;6.85;;;4.22;;
22965;SDS011;11649;48.090;9.754;2023-03-08T11:11:44;8.52;;;3.90;;
22965;SDS011;11649;48.090;9.754;2023-03-08T11:14:11;8.20;;;4.25;;
22965;SDS011;11649;48.090;9.754;2023-03-08T11:16:43;5.75;;;4.15;;
22965;SDS011;11649;48.090;9.754;2023-03-08T11:27:50;4.90;;;3.75;;
22965;SDS011;11649;48.090;9.754;2023-03-08T11:30:43;4.55;;;3.83;;
22965;SDS011;11649;48.090;9.754;2023-03-08T11:33:36;4.63;;;3.55;;
22965;SDS011;11649;48.090;9.754;2023-03-08T11:36:11;6.63;;;3.40;;
22965;SDS011;11649;48.090;9.754;2023-03-08T11:38:42;7.50;;;3.50;;
22965;SDS011;11649;48.090;9.754;2023-03-08T11:41:20;6.15;;;4.20;;
22965;SDS011;11649;48.090;9.754;2023-03-08T11:52:30;4.15;;;3.60;;
22965;SDS011;11649;48.090;9.754;2023-03-08T11:58:07;5.38;;;3.10;;
22965;SDS011;11649;48.090;9.754;2023-03-08T12:00:40;3.58;;;2.83;;
22965;SDS011;11649;48.090;9.754;2023-03-08T12:03:13;3.65;;;2.72;;
22965;SDS011;11649;48.090;9.754;2023-03-08T12:08:26;3.40;;;2.90;;
22965;SDS011;11649;48.090;9.754;2023-03-08T12:13:39;3.20;;;2.63;;
22965;SDS011;11649;48.090;9.754;2023-03-08T12:16:12;3.90;;;2.72;;
22965;SDS011;11649;48.090;9.754;2023-03-08T12:18:53;4.90;;;2.67;;
22965;SDS011;11649;48.090;9.754;2023-03-08T12:21:40;3.42;;;2.38;;
22965;SDS011;11649;48.090;9.754;2023-03-08T12:26:45;2.70;;;2.20;;
22965;SDS011;11649;48.090;9.754;2023-03-08T12:29:48;3.72;;;2.92;;
22965;SDS011;11649;48.090;9.754;2023-03-08T12:32:37;3.17;;;2.67;;
22965;SDS011;11649;48.090;9.754;2023-03-08T12:35:22;2.70;;;2.10;;
22965;SDS011;11649;48.090;9.754;2023-03-08T12:40:46;3.22;;;2.20;;
22965;SDS011;11649;48.090;9.754;2023-03-08T12:45:46;3.15;;;2.25;;
22965;SDS011;11649;48.090;9.754;2023-03-08T12:48:23;4.18;;;2.40;;
22965;SDS011;11649;48.090;9.754;2023-03-08T12:53:53;3.78;;;1.92;;
22965;SDS011;11649;48.090;9.754;2023-03-08T12:56:30;6.18;;;2.00;;
22965;SDS011;11649;48.090;9.754;2023-03-08T12:59:46;3.95;;;2.00;;
22965;SDS011;11649;48.090;9.754;2023-03-08T13:15:21;2.80;;;1.42;;
22965;SDS011;11649;48.090;9.754;2023-03-08T13:17:57;1.95;;;1.40;;
22965;SDS011;11649;48.090;9.754;2023-03-08T13:23:09;1.42;;;1.33;;
22965;SDS011;11649;48.090;9.754;2023-03-08T13:28:10;1.60;;;1.33;;
22965;SDS011;11649;48.090;9.754;2023-03-08T13:30:41;1.60;;;1.20;;
22965;SDS011;11649;48.090;9.754;2023-03-08T13:35:41;1.45;;;1.10;;
22965;SDS011;11649;48.090;9.754;2023-03-08T13:38:15;1.20;;;1.10;;
22965;SDS011;11649;48.090;9.754;2023-03-08T13:40:51;1.73;;;1.30;;
22965;SDS011;11649;48.090;9.754;2023-03-08T13:43:20;1.20;;;1.10;;
22965;SDS011;11649;48.090;9.754;2023-03-08T13:45:50;2.83;;;1.23;;
22965;SDS011;11649;48.090;9.754;2023-03-08T13:48:19;1.33;;;1.23;;
22965;SDS011;11649;48.090;9.754;2023-03-08T13:50:48;1.80;;;1.40;;
22965;SDS011;11649;48.090;9.754;2023-03-08T13:53:17;1.75;;;1.30;;
22965;SDS011;11649;48.090;9.754;2023-03-08T13:55:47;2.38;;;1.42;;
22965;SDS011;11649;48.090;9.754;2023-03-08T14:00:59;1.48;;;1.30;;
22965;SDS011;11649;48.090;9.754;2023-03-08T14:03:37;2.97;;;2.15;;
22965;SDS011;11649;48.090;9.754;2023-03-08T14:06:24;2.10;;;1.88;;
22965;SDS011;11649;48.090;9.754;2023-03-08T14:08:55;1.60;;;1.30;;
22965;SDS011;11649;48.090;9.754;2023-03-08T14:11:27;3.63;;;1.40;;
22965;SDS011;11649;48.090;9.754;2023-03-08T14:13:56;7.47;;;1.83;;
22965;SDS011;11649;48.090;9.754;2023-03-08T14:16:28;1.40;;;1.15;;
22965;SDS011;11649;48.090;9.754;2023-03-08T14:18:57;1.50;;;1.10;;
22965;SDS011;11649;48.090;9.754;2023-03-08T14:21:26;3.20;;;2.30;;
22965;SDS011;11649;48.090;9.754;2023-03-08T14:23:56;3.75;;;1.80;;
22965;SDS011;11649;48.090;9.754;2023-03-08T14:26:34;7.10;;;5.28;;
22965;SDS011;11649;48.090;9.754;2023-03-08T14:29:08;2.67;;;2.28;;
22965;SDS011;11649;48.090;9.754;2023-03-08T14:31:57;3.60;;;1.83;;
22965;SDS011;11649;48.090;9.754;2023-03-08T14:34:45;3.25;;;2.92;;
22965;SDS011;11649;48.090;9.754;2023-03-08T14:37:23;1.85;;;0.90;;
22965;SDS011;11649;48.090;9.754;2023-03-08T14:40:17;6.85;;;3.40;;
22965;SDS011;11649;48.090;9.754;2023-03-08T14:42:52;4.70;;;3.05;;
22965;SDS011;11649;48.090;9.754;2023-03-08T14:45:40;14.07;;;4.50;;
22965;SDS011;11649;48.090;9.754;2023-03-08T14:51:44;18.27;;;10.38;;
22965;SDS011;11649;48.090;9.754;2023-03-08T14:53:59;2.42;;;1.38;;
22965;SDS011;11649;48.090;9.754;2023-03-08T14:56:28;16.02;;;7.10;;
22965;SDS011;11649;48.090;9.754;2023-03-08T14:58:57;8.65;;;5.35;;
22965;SDS011;11649;48.090;9.754;2023-03-08T15:03:57;29.65;;;18.15;;
22965;SDS011;11649;48.090;9.754;2023-03-08T15:06:34;8.10;;;4.38;;
22965;SDS011;11649;48.090;9.754;2023-03-08T15:09:05;2.45;;;1.35;;
22965;SDS011;11649;48.090;9.754;2023-03-08T15:11:33;6.30;;;3.95;;
22965;SDS011;11649;48.090;9.754;2023-03-08T15:14:01;3.55;;;2.78;;
22965;SDS011;11649;48.090;9.754;2023-03-08T15:16:27;7.32;;;4.50;;
22965;SDS011;11649;48.090;9.754;2023-03-08T15:18:54;2.70;;;2.17;;
22965;SDS011;11649;48.090;9.754;2023-03-08T15:21:25;5.07;;;3.20;;
22965;SDS011;11649;48.090;9.754;2023-03-08T15:23:53;4.00;;;2.28;;
22965;SDS011;11649;48.090;9.754;2023-03-08T15:26:24;2.95;;;1.90;;
22965;SDS011;11649;48.090;9.754;2023-03-08T15:28:53;8.38;;;4.85;;
22965;SDS011;11649;48.090;9.754;2023-03-08T15:31:20;2.13;;;1.63;;
22965;SDS011;11649;48.090;9.754;2023-03-08T15:33:47;3.38;;;2.03;;
22965;SDS011;11649;48.090;9.754;2023-03-08T15:36:15;6.30;;;3.38;;
22965;SDS011;11649;48.090;9.754;2023-03-08T15:38:43;3.42;;;1.70;;
22965;SDS011;11649;48.090;9.754;2023-03-08T15:41:11;3.35;;;1.92;;
22965;SDS011;11649;48.090;9.754;2023-03-08T15:43:38;2.60;;;1.63;;
22965;SDS011;11649;48.090;9.754;2023-03-08T15:46:05;5.53;;;1.40;;
22965;SDS011;11649;48.090;9.754;2023-03-08T15:48:34;2.50;;;1.48;;
22965;SDS011;11649;48.090;9.754;2023-03-08T15:51:01;1.80;;;1.20;;
22965;SDS011;11649;48.090;9.754;2023-03-08T15:53:28;1.17;;;0.98;;
22965;SDS011;11649;48.090;9.754;2023-03-08T15:56:01;2.20;;;1.00;;
22965;SDS011;11649;48.090;9.754;2023-03-08T15:58:28;3.33;;;1.98;;
22965;SDS011;11649;48.090;9.754;2023-03-08T16:00:54;5.00;;;1.60;;
22965;SDS011;11649;48.090;9.754;2023-03-08T16:03:21;1.30;;;1.00;;
22965;SDS011;11649;48.090;9.754;2023-03-08T16:05:56;3.40;;;1.33;;
22965;SDS011;11649;48.090;9.754;2023-03-08T16:08:23;2.85;;;1.70;;
22965;SDS011;11649;48.090;9.754;2023-03-08T16:10:54;3.42;;;1.40;;
22965;SDS011;11649;48.090;9.754;2023-03-08T16:13:21;3.53;;;1.13;;
22965;SDS011;11649;48.090;9.754;2023-03-08T16:15:47;1.75;;;1.00;;